sensor_id;sensor_type;location;lat;lon;timestamp;pressure;altitude;pressure_sealevel;temperature;humidity
50634;BME280;36596;55.798;38.462;2022-07-05T00:01:40;99529.78;;;19.62;100.00
50634;BME280;36596;55.798;38.462;2022-07-05T00:04:06;99530.50;;;19.59;100.00
50634;BME280;36596;55.798;38.462;2022-07-05T00:06:31;99539.94;;;19.58;100.00
50634;BME280;36596;55.798;38.462;2022-07-05T00:08:57;99534.31;;;19.54;100.00
50634;BME280;36596;55.798;38.462;2022-07-05T00:11:23;99542.97;;;19.52;100.00
50634;BME280;36596;55.798;38.462;2022-07-05T00:13:50;99540.94;;;19.49;100.00
50634;BME280;36596;55.798;38.462;2022-07-05T00:16:16;99543.22;;;19.47;100.00
50634;BME280;36596;55.798;38.462;2022-07-05T00:18:42;99542.34;;;19.43;100.00
50634;BME280;36596;55.798;38.462;2022-07-05T00:21:08;99535.19;;;19.42;100.00
50634;BME280;36596;55.798;38.462;2022-07-05T00:23:34;99541.53;;;19.43;100.00
50634;BME280;36596;55.798;38.462;2022-07-05T00:26:00;99530.16;;;19.32;100.00
50634;BME280;36596;55.798;38.462;2022-07-05T00:28:25;99535.69;;;19.32;100.00
50634;BME280;36596;55.798;38.462;2022-07-05T00:30:51;99534.09;;;19.31;100.00
50634;BME280;36596;55.798;38.462;2022-07-05T00:33:17;99548.63;;;19.28;100.00
50634;BME280;36596;55.798;38.462;2022-07-05T00:35:43;99537.25;;;19.17;100.00
50634;BME280;36596;55.798;38.462;2022-07-05T00:38:09;99546.69;;;19.16;100.00
50634;BME280;36596;55.798;38.462;2022-07-05T00:40:35;99553.16;;;19.08;100.00
50634;BME280;36596;55.798;38.462;2022-07-05T00:43:00;99549.38;;;19.00;100.00
50634;BME280;36596;55.798;38.462;2022-07-05T00:45:26;99546.63;;;19.00;100.00
50634;BME280;36596;55.798;38.462;2022-07-05T00:47:52;99553.78;;;19.01;100.00
50634;BME280;36596;55.798;38.462;2022-07-05T00:50:18;99553.66;;;18.97;100.00
50634;BME280;36596;55.798;38.462;2022-07-05T00:52:45;99554.72;;;18.93;100.00
50634;BME280;36596;55.798;38.462;2022-07-05T00:55:11;99550.22;;;18.88;100.00
50634;BME280;36596;55.798;38.462;2022-07-05T00:57:37;99553.78;;;18.89;100.00
50634;BME280;36596;55.798;38.462;2022-07-05T01:00:04;99556.53;;;18.89;100.00
50634;BME280;36596;55.798;38.462;2022-07-05T01:02:30;99550.22;;;18.88;100.00
50634;BME280;36596;55.798;38.462;2022-07-05T01:04:57;99554.97;;;18.88;100.00
50634;BME280;36596;55.798;38.462;2022-07-05T01:07:25;99553.66;;;18.85;100.00
50634;BME280;36596;55.798;38.462;2022-07-05T01:09:51;99546.88;;;18.82;100.00
50634;BME280;36596;55.798;38.462;2022-07-05T01:12:17;99552.75;;;18.81;100.00
50634;BME280;36596;55.798;38.462;2022-07-05T01:14:45;99558.63;;;18.79;100.00
50634;BME280;36596;55.798;38.462;2022-07-05T01:17:12;99547.34;;;18.72;100.00
50634;BME280;36596;55.798;38.462;2022-07-05T01:19:38;99547.81;;;18.74;100.00
50634;BME280;36596;55.798;38.462;2022-07-05T01:22:12;99546.28;;;18.77;100.00
50634;BME280;36596;55.798;38.462;2022-07-05T01:24:41;99548.63;;;18.75;100.00
50634;BME280;36596;55.798;38.462;2022-07-05T01:27:07;99548.97;;;18.73;100.00
50634;BME280;36596;55.798;38.462;2022-07-05T01:29:33;99556.78;;;18.71;100.00
50634;BME280;36596;55.798;38.462;2022-07-05T01:31:59;99555.53;;;18.68;100.00
50634;BME280;36596;55.798;38.462;2022-07-05T01:34:25;99548.38;;;18.67;100.00
50634;BME280;36596;55.798;38.462;2022-07-05T01:36:51;99552.28;;;18.66;100.00
50634;BME280;36596;55.798;38.462;2022-07-05T01:39:18;99553.56;;;18.69;100.00
50634;BME280;36596;55.798;38.462;2022-07-05T01:41:44;99554.59;;;18.77;100.00
50634;BME280;36596;55.798;38.462;2022-07-05T01:44:11;99541.13;;;18.75;100.00
50634;BME280;36596;55.798;38.462;2022-07-05T01:46:38;99555.16;;;18.82;100.00
50634;BME280;36596;55.798;38.462;2022-07-05T01:49:09;99549.88;;;18.90;100.00
50634;BME280;36596;55.798;38.462;2022-07-05T01:51:47;99558.16;;;19.02;100.00
50634;BME280;36596;55.798;38.462;2022-07-05T01:54:14;99541.66;;;19.06;100.00
50634;BME280;36596;55.798;38.462;2022-07-05T01:56:39;99545.44;;;19.13;100.00
50634;BME280;36596;55.798;38.462;2022-07-05T01:59:06;99546.78;;;19.19;100.00
50634;BME280;36596;55.798;38.462;2022-07-05T02:01:37;99543.78;;;19.25;100.00
50634;BME280;36596;55.798;38.462;2022-07-05T02:04:05;99550.78;;;19.34;100.00
50634;BME280;36596;55.798;38.462;2022-07-05T02:06:32;99550.44;;;19.36;100.00
50634;BME280;36596;55.798;38.462;2022-07-05T02:09:00;99553.50;;;19.47;100.00
50634;BME280;36596;55.798;38.462;2022-07-05T02:11:27;99545.31;;;19.50;100.00
50634;BME280;36596;55.798;38.462;2022-07-05T02:13:53;99539.69;;;19.63;100.00
50634;BME280;36596;55.798;38.462;2022-07-05T02:16:39;99539.19;;;19.73;100.00
50634;BME280;36596;55.798;38.462;2022-07-05T02:19:06;99547.78;;;19.84;100.00
50634;BME280;36596;55.798;38.462;2022-07-05T02:21:36;99550.38;;;19.93;100.00
50634;BME280;36596;55.798;38.462;2022-07-05T02:24:05;99548.53;;;19.97;100.00
50634;BME280;36596;55.798;38.462;2022-07-05T02:26:35;99549.00;;;19.99;100.00
50634;BME280;36596;55.798;38.462;2022-07-05T02:29:03;99552.63;;;20.03;100.00
50634;BME280;36596;55.798;38.462;2022-07-05T02:31:30;99544.44;;;20.06;100.00
50634;BME280;36596;55.798;38.462;2022-07-05T02:33:56;99551.75;;;20.15;100.00
50634;BME280;36596;55.798;38.462;2022-07-05T02:36:24;99553.47;;;20.19;100.00
50634;BME280;36596;55.798;38.462;2022-07-05T02:38:50;99543.25;;;20.23;100.00
50634;BME280;36596;55.798;38.462;2022-07-05T02:41:16;99559.19;;;20.27;100.00
50634;BME280;36596;55.798;38.462;2022-07-05T02:43:46;99544.25;;;20.31;100.00
50634;BME280;36596;55.798;38.462;2022-07-05T02:46:14;99546.38;;;20.38;100.00
50634;BME280;36596;55.798;38.462;2022-07-05T02:48:40;99545.75;;;20.45;100.00
50634;BME280;36596;55.798;38.462;2022-07-05T02:51:07;99552.25;;;20.52;100.00
50634;BME280;36596;55.798;38.462;2022-07-05T02:53:34;99547.59;;;20.56;100.00
50634;BME280;36596;55.798;38.462;2022-07-05T02:56:02;99555.19;;;20.59;100.00
50634;BME280;36596;55.798;38.462;2022-07-05T02:58:29;99557.16;;;20.59;100.00
50634;BME280;36596;55.798;38.462;2022-07-05T03:00:57;99541.81;;;20.62;100.00
50634;BME280;36596;55.798;38.462;2022-07-05T03:03:25;99540.97;;;20.61;100.00
50634;BME280;36596;55.798;38.462;2022-07-05T03:05:52;99537.13;;;20.66;100.00
50634;BME280;36596;55.798;38.462;2022-07-05T03:08:19;99535.00;;;20.59;100.00
50634;BME280;36596;55.798;38.462;2022-07-05T03:10:45;99542.94;;;20.60;100.00
50634;BME280;36596;55.798;38.462;2022-07-05T03:13:11;99545.72;;;20.60;100.00
50634;BME280;36596;55.798;38.462;2022-07-05T03:15:39;99543.75;;;20.61;100.00
50634;BME280;36596;55.798;38.462;2022-07-05T03:18:06;99556.66;;;20.69;100.00
50634;BME280;36596;55.798;38.462;2022-07-05T03:20:33;99550.81;;;20.74;100.00
50634;BME280;36596;55.798;38.462;2022-07-05T03:22:58;99556.09;;;20.80;100.00
50634;BME280;36596;55.798;38.462;2022-07-05T03:25:32;99557.47;;;20.89;100.00
50634;BME280;36596;55.798;38.462;2022-07-05T03:28:02;99556.78;;;20.92;100.00
50634;BME280;36596;55.798;38.462;2022-07-05T03:30:31;99560.41;;;20.97;100.00
50634;BME280;36596;55.798;38.462;2022-07-05T03:32:57;99560.84;;;20.99;100.00
50634;BME280;36596;55.798;38.462;2022-07-05T03:35:23;99551.50;;;21.07;100.00
50634;BME280;36596;55.798;38.462;2022-07-05T03:37:51;99556.84;;;21.16;100.00
50634;BME280;36596;55.798;38.462;2022-07-05T03:40:19;99547.72;;;21.15;100.00
50634;BME280;36596;55.798;38.462;2022-07-05T03:42:48;99549.34;;;21.16;100.00
50634;BME280;36596;55.798;38.462;2022-07-05T03:45:14;99547.50;;;21.24;100.00
50634;BME280;36596;55.798;38.462;2022-07-05T03:47:40;99565.56;;;21.34;100.00
50634;BME280;36596;55.798;38.462;2022-07-05T03:50:09;99570.16;;;21.45;100.00
50634;BME280;36596;55.798;38.462;2022-07-05T03:52:36;99566.06;;;21.59;100.00
50634;BME280;36596;55.798;38.462;2022-07-05T03:55:02;99559.06;;;21.65;100.00
50634;BME280;36596;55.798;38.462;2022-07-05T03:57:29;99571.97;;;21.77;100.00
50634;BME280;36596;55.798;38.462;2022-07-05T03:59:55;99555.44;;;21.84;100.00
50634;BME280;36596;55.798;38.462;2022-07-05T04:02:24;99568.06;;;22.01;100.00
50634;BME280;36596;55.798;38.462;2022-07-05T04:04:50;99563.53;;;22.16;100.00
50634;BME280;36596;55.798;38.462;2022-07-05T04:07:15;99568.47;;;22.26;100.00
50634;BME280;36596;55.798;38.462;2022-07-05T04:09:41;99559.84;;;22.31;100.00
50634;BME280;36596;55.798;38.462;2022-07-05T04:12:09;99570.03;;;22.47;100.00
50634;BME280;36596;55.798;38.462;2022-07-05T04:14:36;99574.91;;;22.54;100.00
50634;BME280;36596;55.798;38.462;2022-07-05T04:17:02;99569.47;;;22.61;100.00
50634;BME280;36596;55.798;38.462;2022-07-05T04:19:29;99561.66;;;22.70;100.00
50634;BME280;36596;55.798;38.462;2022-07-05T04:21:56;99551.50;;;22.81;100.00
50634;BME280;36596;55.798;38.462;2022-07-05T04:24:22;99561.72;;;23.04;100.00
50634;BME280;36596;55.798;38.462;2022-07-05T04:26:48;99559.53;;;23.17;100.00
50634;BME280;36596;55.798;38.462;2022-07-05T04:29:14;99569.63;;;23.29;100.00
50634;BME280;36596;55.798;38.462;2022-07-05T04:31:40;99571.69;;;23.35;100.00
50634;BME280;36596;55.798;38.462;2022-07-05T04:34:06;99566.94;;;23.39;100.00
50634;BME280;36596;55.798;38.462;2022-07-05T04:36:36;99573.81;;;23.46;100.00
50634;BME280;36596;55.798;38.462;2022-07-05T04:39:08;99569.16;;;23.57;100.00
50634;BME280;36596;55.798;38.462;2022-07-05T04:41:36;99563.81;;;23.79;100.00
50634;BME280;36596;55.798;38.462;2022-07-05T04:44:05;99575.94;;;23.94;100.00
50634;BME280;36596;55.798;38.462;2022-07-05T04:46:32;99577.22;;;24.03;100.00
50634;BME280;36596;55.798;38.462;2022-07-05T04:48:57;99572.19;;;24.16;100.00
50634;BME280;36596;55.798;38.462;2022-07-05T04:51:24;99580.63;;;24.27;100.00
50634;BME280;36596;55.798;38.462;2022-07-05T04:53:50;99571.59;;;24.41;100.00
50634;BME280;36596;55.798;38.462;2022-07-05T04:56:16;99569.25;;;24.50;100.00
50634;BME280;36596;55.798;38.462;2022-07-05T04:58:42;99570.56;;;24.64;100.00
50634;BME280;36596;55.798;38.462;2022-07-05T05:01:08;99565.88;;;24.78;100.00
50634;BME280;36596;55.798;38.462;2022-07-05T05:03:34;99569.53;;;24.86;100.00
50634;BME280;36596;55.798;38.462;2022-07-05T05:06:00;99567.16;;;24.92;100.00
50634;BME280;36596;55.798;38.462;2022-07-05T05:08:25;99564.41;;;24.99;100.00
50634;BME280;36596;55.798;38.462;2022-07-05T05:10:51;99568.84;;;25.11;100.00
50634;BME280;36596;55.798;38.462;2022-07-05T05:13:17;99565.34;;;25.25;100.00
50634;BME280;36596;55.798;38.462;2022-07-05T05:15:43;99572.59;;;25.33;100.00
50634;BME280;36596;55.798;38.462;2022-07-05T05:18:09;99567.00;;;25.40;100.00
50634;BME280;36596;55.798;38.462;2022-07-05T05:20:34;99560.66;;;25.51;99.93
50634;BME280;36596;55.798;38.462;2022-07-05T05:23:00;99562.31;;;25.66;97.14
50634;BME280;36596;55.798;38.462;2022-07-05T05:25:26;99563.16;;;25.77;97.36
50634;BME280;36596;55.798;38.462;2022-07-05T05:27:54;99557.97;;;25.87;96.71
50634;BME280;36596;55.798;38.462;2022-07-05T05:30:20;99558.38;;;25.92;93.08
50634;BME280;36596;55.798;38.462;2022-07-05T05:32:46;99565.97;;;25.99;95.68
50634;BME280;36596;55.798;38.462;2022-07-05T05:35:12;99557.19;;;25.97;96.51
50634;BME280;36596;55.798;38.462;2022-07-05T05:37:51;99564.41;;;26.09;97.08
50634;BME280;36596;55.798;38.462;2022-07-05T05:40:22;99565.63;;;26.11;94.24
50634;BME280;36596;55.798;38.462;2022-07-05T05:42:48;99556.03;;;26.12;94.43
50634;BME280;36596;55.798;38.462;2022-07-05T05:45:17;99560.44;;;26.31;91.85
50634;BME280;36596;55.798;38.462;2022-07-05T05:47:54;99556.03;;;26.45;90.45
50634;BME280;36596;55.798;38.462;2022-07-05T05:50:24;99560.81;;;26.48;89.24
50634;BME280;36596;55.798;38.462;2022-07-05T05:52:51;99552.81;;;26.61;89.65
50634;BME280;36596;55.798;38.462;2022-07-05T05:55:17;99546.00;;;26.65;90.29
50634;BME280;36596;55.798;38.462;2022-07-05T05:57:44;99554.81;;;26.85;89.47
50634;BME280;36596;55.798;38.462;2022-07-05T06:00:10;99555.56;;;27.00;88.15
50634;BME280;36596;55.798;38.462;2022-07-05T06:02:39;99557.53;;;27.03;80.65
50634;BME280;36596;55.798;38.462;2022-07-05T06:05:06;99549.50;;;27.13;77.90
50634;BME280;36596;55.798;38.462;2022-07-05T06:07:52;99555.09;;;27.24;76.50
50634;BME280;36596;55.798;38.462;2022-07-05T06:10:24;99552.28;;;27.20;73.71
50634;BME280;36596;55.798;38.462;2022-07-05T06:12:51;99553.09;;;27.20;76.50
50634;BME280;36596;55.798;38.462;2022-07-05T06:15:18;99546.66;;;27.34;78.23
50634;BME280;36596;55.798;38.462;2022-07-05T06:17:44;99538.59;;;27.47;80.19
50634;BME280;36596;55.798;38.462;2022-07-05T06:20:14;99534.13;;;27.61;85.86
50634;BME280;36596;55.798;38.462;2022-07-05T06:22:41;99537.66;;;27.72;85.80
50634;BME280;36596;55.798;38.462;2022-07-05T06:25:07;99545.28;;;27.68;86.74
50634;BME280;36596;55.798;38.462;2022-07-05T06:27:44;99542.03;;;27.77;78.84
50634;BME280;36596;55.798;38.462;2022-07-05T06:30:13;99543.75;;;27.56;76.45
50634;BME280;36596;55.798;38.462;2022-07-05T06:32:40;99540.97;;;27.45;74.90
50634;BME280;36596;55.798;38.462;2022-07-05T06:35:06;99549.78;;;27.44;77.76
50634;BME280;36596;55.798;38.462;2022-07-05T06:37:45;99546.13;;;27.54;82.15
50634;BME280;36596;55.798;38.462;2022-07-05T06:40:13;99554.53;;;27.58;81.08
50634;BME280;36596;55.798;38.462;2022-07-05T06:42:39;99538.16;;;27.56;78.72
50634;BME280;36596;55.798;38.462;2022-07-05T06:45:06;99552.16;;;27.56;82.40
50634;BME280;36596;55.798;38.462;2022-07-05T06:47:33;99536.56;;;27.51;85.03
50634;BME280;36596;55.798;38.462;2022-07-05T06:49:59;99542.09;;;27.62;84.79
50634;BME280;36596;55.798;38.462;2022-07-05T06:52:24;99532.50;;;27.60;83.27
50634;BME280;36596;55.798;38.462;2022-07-05T06:54:51;99529.25;;;27.72;82.73
50634;BME280;36596;55.798;38.462;2022-07-05T06:57:23;99534.69;;;27.94;80.26
50634;BME280;36596;55.798;38.462;2022-07-05T06:59:50;99539.06;;;28.05;79.06
50634;BME280;36596;55.798;38.462;2022-07-05T07:02:16;99532.94;;;28.18;79.81
50634;BME280;36596;55.798;38.462;2022-07-05T07:04:42;99533.25;;;28.27;79.71
50634;BME280;36596;55.798;38.462;2022-07-05T07:07:08;99527.16;;;28.36;80.22
50634;BME280;36596;55.798;38.462;2022-07-05T07:09:56;99532.78;;;28.36;78.44
50634;BME280;36596;55.798;38.462;2022-07-05T07:12:22;99529.59;;;28.30;77.99
50634;BME280;36596;55.798;38.462;2022-07-05T07:14:48;99524.81;;;28.31;79.06
50634;BME280;36596;55.798;38.462;2022-07-05T07:17:14;99526.31;;;28.39;78.13
50634;BME280;36596;55.798;38.462;2022-07-05T07:19:39;99518.81;;;28.29;77.74
50634;BME280;36596;55.798;38.462;2022-07-05T07:22:05;99530.38;;;28.38;76.91
50634;BME280;36596;55.798;38.462;2022-07-05T07:24:31;99527.09;;;28.43;77.15
50634;BME280;36596;55.798;38.462;2022-07-05T07:26:57;99520.16;;;28.55;76.39
50634;BME280;36596;55.798;38.462;2022-07-05T07:29:35;99535.25;;;28.72;75.29
50634;BME280;36596;55.798;38.462;2022-07-05T07:32:02;99520.94;;;28.59;72.00
50634;BME280;36596;55.798;38.462;2022-07-05T07:34:29;99526.16;;;28.61;73.28
50634;BME280;36596;55.798;38.462;2022-07-05T07:36:55;99526.44;;;28.73;71.94
50634;BME280;36596;55.798;38.462;2022-07-05T07:39:21;99518.78;;;28.74;69.81
50634;BME280;36596;55.798;38.462;2022-07-05T07:41:48;99521.19;;;28.75;69.77
50634;BME280;36596;55.798;38.462;2022-07-05T07:44:14;99530.34;;;28.83;71.49
50634;BME280;36596;55.798;38.462;2022-07-05T07:46:41;99527.13;;;28.85;71.46
50634;BME280;36596;55.798;38.462;2022-07-05T07:49:07;99530.22;;;28.94;69.54
50634;BME280;36596;55.798;38.462;2022-07-05T07:51:33;99517.47;;;28.86;69.91
50634;BME280;36596;55.798;38.462;2022-07-05T07:54:01;99523.00;;;28.93;71.86
50634;BME280;36596;55.798;38.462;2022-07-05T07:56:27;99527.59;;;29.10;73.02
50634;BME280;36596;55.798;38.462;2022-07-05T07:58:56;99523.16;;;29.13;69.91
50634;BME280;36596;55.798;38.462;2022-07-05T08:01:22;99523.50;;;29.19;68.13
50634;BME280;36596;55.798;38.462;2022-07-05T08:03:49;99515.84;;;29.23;68.46
50634;BME280;36596;55.798;38.462;2022-07-05T08:06:15;99511.72;;;29.31;69.42
50634;BME280;36596;55.798;38.462;2022-07-05T08:08:42;99512.84;;;29.37;68.69
50634;BME280;36596;55.798;38.462;2022-07-05T08:11:10;99519.16;;;29.72;68.70
50634;BME280;36596;55.798;38.462;2022-07-05T08:13:37;99516.78;;;29.43;67.95
50634;BME280;36596;55.798;38.462;2022-07-05T08:16:03;99510.88;;;29.34;67.97
50634;BME280;36596;55.798;38.462;2022-07-05T08:18:29;99515.94;;;29.46;69.06
50634;BME280;36596;55.798;38.462;2022-07-05T08:21:14;99515.44;;;29.24;69.76
50634;BME280;36596;55.798;38.462;2022-07-05T08:23:59;99521.19;;;29.10;69.27
50634;BME280;36596;55.798;38.462;2022-07-05T08:26:28;99523.84;;;29.24;67.42
50634;BME280;36596;55.798;38.462;2022-07-05T08:28:55;99509.63;;;29.39;64.65
50634;BME280;36596;55.798;38.462;2022-07-05T08:31:25;99513.06;;;29.50;65.37
50634;BME280;36596;55.798;38.462;2022-07-05T08:33:52;99510.13;;;29.61;63.41
50634;BME280;36596;55.798;38.462;2022-07-05T08:36:23;99510.47;;;29.63;65.56
50634;BME280;36596;55.798;38.462;2022-07-05T08:38:48;99504.44;;;29.64;63.31
50634;BME280;36596;55.798;38.462;2022-07-05T08:41:18;99508.63;;;29.80;64.18
50634;BME280;36596;55.798;38.462;2022-07-05T08:43:49;99510.97;;;29.85;62.37
50634;BME280;36596;55.798;38.462;2022-07-05T08:46:16;99505.44;;;30.05;61.58
50634;BME280;36596;55.798;38.462;2022-07-05T08:48:43;99517.59;;;30.22;60.66
50634;BME280;36596;55.798;38.462;2022-07-05T08:51:20;99517.06;;;30.31;56.78
50634;BME280;36596;55.798;38.462;2022-07-05T08:53:50;99514.41;;;30.20;54.74
50634;BME280;36596;55.798;38.462;2022-07-05T08:56:17;99509.97;;;30.23;53.60
50634;BME280;36596;55.798;38.462;2022-07-05T08:58:44;99507.06;;;30.26;54.17
50634;BME280;36596;55.798;38.462;2022-07-05T09:01:11;99508.53;;;30.58;53.95
50634;BME280;36596;55.798;38.462;2022-07-05T09:03:50;99493.03;;;30.90;53.81
50634;BME280;36596;55.798;38.462;2022-07-05T09:06:18;99498.34;;;30.88;51.82
50634;BME280;36596;55.798;38.462;2022-07-05T09:08:45;99503.44;;;30.53;52.88
50634;BME280;36596;55.798;38.462;2022-07-05T09:11:14;99501.41;;;30.30;55.26
50634;BME280;36596;55.798;38.462;2022-07-05T09:13:42;99492.41;;;30.15;58.62
50634;BME280;36596;55.798;38.462;2022-07-05T09:16:09;99491.22;;;30.36;56.89
50634;BME280;36596;55.798;38.462;2022-07-05T09:21:24;99482.84;;;31.89;51.81
50634;BME280;36596;55.798;38.462;2022-07-05T09:23:56;99485.41;;;32.46;48.21
50634;BME280;36596;55.798;38.462;2022-07-05T09:26:36;99482.28;;;32.73;45.47
50634;BME280;36596;55.798;38.462;2022-07-05T09:29:13;99478.69;;;32.73;44.81
50634;BME280;36596;55.798;38.462;2022-07-05T09:31:41;99475.97;;;32.53;44.10
50634;BME280;36596;55.798;38.462;2022-07-05T09:34:17;99475.31;;;32.32;44.88
50634;BME280;36596;55.798;38.462;2022-07-05T09:36:58;99479.44;;;32.44;44.75
50634;BME280;36596;55.798;38.462;2022-07-05T09:44:44;99465.44;;;34.28;38.72
50634;BME280;36596;55.798;38.462;2022-07-05T09:47:12;99469.19;;;33.73;39.39
50634;BME280;36596;55.798;38.462;2022-07-05T09:49:42;99474.88;;;33.35;40.06
50634;BME280;36596;55.798;38.462;2022-07-05T09:52:08;99464.09;;;33.17;40.41
50634;BME280;36596;55.798;38.462;2022-07-05T09:54:34;99460.53;;;33.42;39.41
50634;BME280;36596;55.798;38.462;2022-07-05T09:57:00;99456.50;;;33.01;40.05
50634;BME280;36596;55.798;38.462;2022-07-05T09:59:26;99448.53;;;32.83;41.38
50634;BME280;36596;55.798;38.462;2022-07-05T10:01:52;99455.72;;;33.13;41.43
50634;BME280;36596;55.798;38.462;2022-07-05T10:04:18;99453.59;;;33.56;39.83
50634;BME280;36596;55.798;38.462;2022-07-05T10:06:44;99455.41;;;34.36;37.49
50634;BME280;36596;55.798;38.462;2022-07-05T10:09:10;99447.00;;;35.43;36.30
50634;BME280;36596;55.798;38.462;2022-07-05T10:11:41;99436.47;;;36.59;33.33
50634;BME280;36596;55.798;38.462;2022-07-05T10:14:14;99438.63;;;37.01;31.72
50634;BME280;36596;55.798;38.462;2022-07-05T10:16:41;99441.97;;;36.99;30.64
50634;BME280;36596;55.798;38.462;2022-07-05T10:19:15;99447.34;;;36.88;30.46
50634;BME280;36596;55.798;38.462;2022-07-05T10:21:44;99429.38;;;37.34;30.13
50634;BME280;36596;55.798;38.462;2022-07-05T10:24:11;99426.78;;;38.03;28.72
50634;BME280;36596;55.798;38.462;2022-07-05T10:26:38;99423.44;;;37.56;28.62
50634;BME280;36596;55.798;38.462;2022-07-05T10:29:06;99423.75;;;37.06;29.43
50634;BME280;36596;55.798;38.462;2022-07-05T10:31:33;99415.56;;;37.08;29.13
50634;BME280;36596;55.798;38.462;2022-07-05T10:34:00;99414.41;;;37.15;28.77
50634;BME280;36596;55.798;38.462;2022-07-05T10:36:33;99403.19;;;37.30;28.70
50634;BME280;36596;55.798;38.462;2022-07-05T10:39:01;99418.41;;;37.08;28.54
50634;BME280;36596;55.798;38.462;2022-07-05T10:41:28;99416.09;;;35.86;30.48
50634;BME280;36596;55.798;38.462;2022-07-05T10:43:56;99407.88;;;34.97;32.55
50634;BME280;36596;55.798;38.462;2022-07-05T10:46:38;99414.41;;;34.63;33.71
50634;BME280;36596;55.798;38.462;2022-07-05T10:49:24;99407.09;;;34.30;34.83
50634;BME280;36596;55.798;38.462;2022-07-05T10:51:53;99412.44;;;33.81;36.13
50634;BME280;36596;55.798;38.462;2022-07-05T10:54:18;99400.34;;;33.54;37.63
50634;BME280;36596;55.798;38.462;2022-07-05T11:00:08;99395.47;;;33.81;38.94
50634;BME280;36596;55.798;38.462;2022-07-05T11:02:35;99390.53;;;33.46;38.76
50634;BME280;36596;55.798;38.462;2022-07-05T11:05:02;99394.59;;;33.58;38.99
50634;BME280;36596;55.798;38.462;2022-07-05T11:08:02;99396.53;;;33.74;38.46
50634;BME280;36596;55.798;38.462;2022-07-05T11:10:29;99390.50;;;33.72;38.21
50634;BME280;36596;55.798;38.462;2022-07-05T11:12:57;99385.97;;;33.61;38.95
50634;BME280;36596;55.798;38.462;2022-07-05T11:15:22;99392.56;;;33.45;38.77
50634;BME280;36596;55.798;38.462;2022-07-05T11:17:48;99390.19;;;33.57;38.20
50634;BME280;36596;55.798;38.462;2022-07-05T11:23:05;99397.84;;;33.18;39.00
50634;BME280;36596;55.798;38.462;2022-07-05T11:25:32;99398.53;;;33.09;40.06
50634;BME280;36596;55.798;38.462;2022-07-05T11:31:00;99405.97;;;32.77;41.72
50634;BME280;36596;55.798;38.462;2022-07-05T11:35:58;99399.19;;;31.99;43.58
50634;BME280;36596;55.798;38.462;2022-07-05T11:38:25;99408.56;;;31.80;44.42
50634;BME280;36596;55.798;38.462;2022-07-05T11:40:51;99421.88;;;31.63;45.85
50634;BME280;36596;55.798;38.462;2022-07-05T11:43:29;99441.63;;;31.26;55.20
50634;BME280;36596;55.798;38.462;2022-07-05T11:45:59;99457.84;;;30.14;69.14
50634;BME280;36596;55.798;38.462;2022-07-05T11:48:28;99455.88;;;29.37;78.04
50634;BME280;36596;55.798;38.462;2022-07-05T11:50:55;99443.53;;;28.65;86.53
50634;BME280;36596;55.798;38.462;2022-07-05T11:53:26;99446.03;;;28.18;90.91
50634;BME280;36596;55.798;38.462;2022-07-05T11:55:59;99469.13;;;27.80;94.63
50634;BME280;36596;55.798;38.462;2022-07-05T11:58:32;99470.56;;;27.47;98.71
50634;BME280;36596;55.798;38.462;2022-07-05T12:01:01;99473.13;;;27.12;100.00
50634;BME280;36596;55.798;38.462;2022-07-05T12:03:27;99474.03;;;26.88;100.00
50634;BME280;36596;55.798;38.462;2022-07-05T12:05:54;99484.06;;;26.63;100.00
50634;BME280;36596;55.798;38.462;2022-07-05T12:08:23;99497.69;;;26.47;100.00
50634;BME280;36596;55.798;38.462;2022-07-05T12:10:50;99492.53;;;26.24;100.00
50634;BME280;36596;55.798;38.462;2022-07-05T12:13:50;99490.94;;;26.01;100.00
50634;BME280;36596;55.798;38.462;2022-07-05T12:16:16;99482.50;;;25.54;100.00
50634;BME280;36596;55.798;38.462;2022-07-05T12:18:56;99493.66;;;25.47;100.00
50634;BME280;36596;55.798;38.462;2022-07-05T12:21:24;99492.31;;;25.08;100.00
50634;BME280;36596;55.798;38.462;2022-07-05T12:23:51;99500.13;;;24.70;100.00
50634;BME280;36596;55.798;38.462;2022-07-05T12:26:18;99506.69;;;24.44;100.00
50634;BME280;36596;55.798;38.462;2022-07-05T12:28:45;99492.63;;;24.26;100.00
50634;BME280;36596;55.798;38.462;2022-07-05T12:31:22;99496.13;;;24.16;100.00
50634;BME280;36596;55.798;38.462;2022-07-05T12:33:50;99500.00;;;24.00;100.00
50634;BME280;36596;55.798;38.462;2022-07-05T12:36:20;99495.91;;;23.87;100.00
50634;BME280;36596;55.798;38.462;2022-07-05T12:38:58;99490.63;;;23.78;100.00
50634;BME280;36596;55.798;38.462;2022-07-05T12:41:24;99490.09;;;23.65;100.00
50634;BME280;36596;55.798;38.462;2022-07-05T12:43:53;99481.66;;;23.58;100.00
50634;BME280;36596;55.798;38.462;2022-07-05T12:46:21;99491.25;;;23.61;100.00
50634;BME280;36596;55.798;38.462;2022-07-05T12:49:01;99475.34;;;23.61;100.00
50634;BME280;36596;55.798;38.462;2022-07-05T12:51:38;99477.72;;;23.59;100.00
50634;BME280;36596;55.798;38.462;2022-07-05T12:54:09;99490.75;;;23.51;100.00
50634;BME280;36596;55.798;38.462;2022-07-05T12:57:01;99497.53;;;23.54;100.00
50634;BME280;36596;55.798;38.462;2022-07-05T13:00:07;99506.00;;;23.65;100.00
50634;BME280;36596;55.798;38.462;2022-07-05T13:02:45;99496.34;;;23.55;100.00
50634;BME280;36596;55.798;38.462;2022-07-05T13:05:23;99499.13;;;23.55;100.00
50634;BME280;36596;55.798;38.462;2022-07-05T13:07:49;99495.91;;;23.49;100.00
50634;BME280;36596;55.798;38.462;2022-07-05T13:10:27;99492.81;;;23.58;100.00
50634;BME280;36596;55.798;38.462;2022-07-05T13:12:57;99485.13;;;23.85;100.00